createdAt,value
2022-12-31T00:02:14.020Z,9.36
2022-12-31T00:04:40.280Z,9.37
2022-12-31T00:07:06.483Z,9.39
2022-12-31T00:09:32.861Z,9.40
2022-12-31T00:11:59.141Z,9.38
2022-12-31T00:14:25.467Z,9.38
2022-12-31T00:16:51.729Z,9.40
2022-12-31T00:19:18.131Z,9.36
2022-12-31T00:21:45.221Z,9.36
2022-12-31T00:24:11.813Z,9.46
2022-12-31T00:26:41.546Z,9.49
2022-12-31T00:29:08.332Z,9.48
2022-12-31T00:31:38.347Z,9.45
2022-12-31T00:34:07.754Z,9.46
2022-12-31T00:36:39.174Z,9.42
2022-12-31T00:39:08.067Z,9.52
2022-12-31T00:41:34.423Z,9.53
2022-12-31T00:44:03.365Z,9.50
2022-12-31T00:49:00.289Z,9.54
2022-12-31T00:51:26.543Z,9.60
2022-12-31T00:53:53.069Z,9.61
2022-12-31T00:56:20.822Z,9.50
2022-12-31T00:58:47.035Z,9.50
2022-12-31T01:01:23.173Z,9.42
2022-12-31T01:03:50.534Z,9.55
2022-12-31T01:06:16.925Z,9.56
2022-12-31T01:08:43.167Z,9.61
2022-12-31T01:11:10.133Z,9.55
2022-12-31T01:13:36.433Z,9.60
2022-12-31T01:16:09.407Z,9.58
2022-12-31T01:18:35.840Z,9.67
2022-12-31T01:21:02.507Z,9.64
2022-12-31T01:23:29.123Z,9.56
2022-12-31T01:25:55.337Z,9.51
2022-12-31T01:28:21.557Z,9.54
2022-12-31T01:30:47.935Z,9.61
2022-12-31T01:33:14.200Z,9.72
2022-12-31T01:35:41.425Z,9.70
2022-12-31T01:38:07.633Z,9.75
2022-12-31T01:40:37.315Z,9.75
2022-12-31T01:43:05.780Z,9.83
2022-12-31T01:45:31.982Z,9.87
2022-12-31T01:47:58.206Z,9.85
2022-12-31T01:50:29.735Z,9.84
2022-12-31T01:52:57.026Z,9.88
2022-12-31T01:55:29.290Z,9.89
2022-12-31T01:57:56.926Z,9.94
2022-12-31T02:00:23.137Z,10.03
2022-12-31T02:02:49.379Z,10.02
2022-12-31T02:05:17.929Z,10.08
2022-12-31T02:07:44.292Z,10.11
2022-12-31T02:10:10.524Z,10.17
2022-12-31T02:12:36.725Z,10.14
2022-12-31T02:15:02.974Z,10.17
2022-12-31T02:17:29.128Z,10.14
2022-12-31T02:20:14.079Z,10.18
2022-12-31T02:22:58.898Z,10.23
2022-12-31T02:25:28.472Z,10.34
2022-12-31T02:28:23.420Z,10.33
2022-12-31T02:30:50.533Z,10.37
2022-12-31T02:33:18.780Z,10.39
2022-12-31T02:35:47.971Z,10.39
2022-12-31T02:38:15.850Z,10.37
2022-12-31T02:40:42.478Z,10.43
2022-12-31T02:43:08.750Z,10.41
2022-12-31T02:45:39.155Z,10.36
2022-12-31T02:48:20.770Z,10.37
2022-12-31T02:50:54.256Z,10.36
2022-12-31T02:53:20.420Z,10.40
2022-12-31T02:55:52.255Z,10.36
2022-12-31T02:58:18.467Z,10.33
2022-12-31T03:00:54.029Z,10.43
2022-12-31T03:03:20.270Z,10.44
2022-12-31T03:05:46.517Z,10.39
2022-12-31T03:08:19.930Z,10.44
2022-12-31T03:10:46.163Z,10.33
2022-12-31T03:13:12.386Z,10.33
2022-12-31T03:15:38.600Z,10.32
2022-12-31T03:18:11.790Z,10.33
2022-12-31T03:20:38.936Z,10.38
2022-12-31T03:23:06.296Z,10.43
2022-12-31T03:25:32.532Z,10.45
2022-12-31T03:27:58.963Z,10.51
2022-12-31T03:30:25.238Z,10.52
2022-12-31T03:32:51.493Z,10.47
2022-12-31T03:35:18.168Z,10.48
2022-12-31T03:37:44.387Z,10.52
2022-12-31T03:40:10.980Z,10.48
2022-12-31T03:42:37.207Z,10.46
2022-12-31T03:45:03.635Z,10.59
2022-12-31T03:47:29.867Z,10.61
2022-12-31T03:49:56.277Z,10.52
2022-12-31T03:52:22.495Z,10.51
2022-12-31T03:54:48.788Z,10.58
2022-12-31T03:57:14.999Z,10.69
2022-12-31T03:59:41.219Z,10.64
2022-12-31T04:02:07.545Z,10.75
2022-12-31T04:04:33.862Z,10.72
2022-12-31T04:07:00.189Z,10.68
2022-12-31T04:09:26.481Z,10.67
2022-12-31T04:11:52.706Z,10.71
2022-12-31T04:14:18.930Z,10.75
2022-12-31T04:16:45.362Z,10.77
2022-12-31T04:19:11.971Z,10.84
2022-12-31T04:21:38.219Z,10.83
2022-12-31T04:24:04.525Z,10.89
2022-12-31T04:26:30.796Z,10.87
2022-12-31T04:28:57.034Z,10.90
2022-12-31T04:31:23.276Z,10.85
2022-12-31T04:33:49.567Z,10.90
2022-12-31T04:36:15.784Z,10.91
2022-12-31T04:38:42.030Z,10.89
2022-12-31T04:41:08.243Z,10.89
2022-12-31T04:43:34.470Z,10.84
2022-12-31T04:46:00.734Z,10.85
2022-12-31T04:48:26.992Z,10.84
2022-12-31T04:50:53.236Z,10.88
2022-12-31T04:53:19.467Z,10.78
2022-12-31T04:55:45.679Z,10.82
2022-12-31T04:58:11.903Z,10.83
2022-12-31T05:00:38.113Z,10.77
2022-12-31T05:03:04.380Z,10.81
2022-12-31T05:05:30.589Z,10.83
2022-12-31T05:07:56.808Z,10.78
2022-12-31T05:10:23.014Z,10.76
2022-12-31T05:12:49.223Z,10.76
2022-12-31T05:15:15.431Z,10.84
2022-12-31T05:17:41.645Z,10.87
2022-12-31T05:20:08.049Z,10.84
2022-12-31T05:22:34.260Z,10.79
2022-12-31T05:25:00.471Z,10.83
2022-12-31T05:27:27.051Z,10.80
2022-12-31T05:29:53.270Z,10.81
2022-12-31T05:32:19.485Z,10.87
2022-12-31T05:34:45.703Z,10.84
2022-12-31T05:37:11.917Z,10.84
2022-12-31T05:39:38.132Z,10.78
2022-12-31T05:42:04.350Z,10.80
2022-12-31T05:44:30.571Z,10.85
2022-12-31T05:46:56.778Z,10.82
2022-12-31T05:49:22.996Z,10.82
2022-12-31T05:51:49.201Z,10.85
2022-12-31T05:54:15.463Z,10.77
2022-12-31T05:56:41.672Z,10.76
2022-12-31T05:59:07.899Z,10.79
2022-12-31T06:01:34.238Z,10.83
2022-12-31T06:04:00.536Z,10.80
2022-12-31T06:06:26.813Z,10.90
2022-12-31T06:08:53.030Z,10.89
2022-12-31T06:11:19.262Z,10.81
2022-12-31T06:13:45.471Z,10.85
2022-12-31T06:16:11.700Z,10.79
2022-12-31T06:18:37.967Z,10.81
2022-12-31T06:21:04.280Z,10.76
2022-12-31T06:23:30.557Z,10.71
2022-12-31T06:25:56.781Z,10.78
2022-12-31T06:28:23.022Z,10.72
2022-12-31T06:30:49.250Z,10.79
2022-12-31T06:33:15.494Z,10.69
2022-12-31T06:35:41.690Z,10.76
2022-12-31T06:38:07.926Z,10.79
2022-12-31T06:40:36.630Z,10.75
2022-12-31T06:43:02.835Z,10.74
2022-12-31T06:45:29.092Z,10.73
2022-12-31T06:47:55.305Z,10.80
2022-12-31T06:50:21.546Z,10.79
2022-12-31T06:52:47.737Z,10.79
2022-12-31T06:55:14.189Z,10.80
2022-12-31T06:57:40.485Z,10.81
2022-12-31T07:00:07.008Z,10.80
2022-12-31T07:02:52.025Z,10.81
2022-12-31T07:05:26.649Z,10.78
2022-12-31T07:07:52.815Z,10.77
2022-12-31T07:10:29.439Z,10.80
2022-12-31T07:13:09.045Z,10.76
2022-12-31T07:15:37.054Z,10.76
2022-12-31T07:18:06.596Z,10.78
2022-12-31T07:20:33.018Z,10.76
2022-12-31T07:22:59.363Z,10.78
2022-12-31T07:25:25.661Z,10.71
2022-12-31T07:28:07.296Z,10.74
2022-12-31T07:30:36.516Z,10.79
2022-12-31T07:33:11.589Z,10.71
2022-12-31T07:35:43.495Z,10.81
2022-12-31T07:38:15.685Z,10.86
2022-12-31T07:41:05.508Z,10.86
2022-12-31T07:43:36.471Z,10.84
2022-12-31T07:46:26.095Z,10.79
2022-12-31T07:48:52.566Z,10.82
2022-12-31T07:51:19.219Z,10.79
2022-12-31T07:53:45.807Z,10.78
2022-12-31T07:56:12.074Z,10.80
2022-12-31T07:58:54.759Z,10.89
2022-12-31T08:01:44.439Z,10.90
2022-12-31T08:04:10.764Z,10.92
2022-12-31T08:06:44.617Z,10.90
2022-12-31T08:09:24.268Z,10.94
2022-12-31T08:11:57.296Z,10.81
2022-12-31T08:14:23.616Z,10.85
2022-12-31T08:16:49.894Z,10.94
2022-12-31T08:19:22.188Z,10.89
2022-12-31T08:21:54.316Z,10.80
2022-12-31T08:24:39.006Z,10.76
2022-12-31T08:27:08.773Z,10.77
2022-12-31T08:29:35.979Z,10.78
2022-12-31T08:32:02.249Z,10.80
2022-12-31T08:34:44.130Z,10.73
2022-12-31T08:37:15.548Z,10.78
2022-12-31T08:40:00.500Z,10.72
2022-12-31T08:42:36.792Z,10.78
2022-12-31T08:45:06.048Z,10.84
2022-12-31T08:47:39.371Z,10.89
2022-12-31T08:50:06.065Z,10.90
2022-12-31T08:52:32.379Z,10.89
2022-12-31T08:54:58.654Z,10.93
2022-12-31T08:57:43.667Z,10.98
2022-12-31T09:00:13.585Z,10.99
2022-12-31T09:02:58.246Z,10.93
2022-12-31T09:05:24.494Z,10.94
2022-12-31T09:08:09.033Z,10.93
2022-12-31T09:10:53.396Z,10.90
2022-12-31T09:13:25.820Z,10.89
2022-12-31T09:15:59.935Z,10.88
2022-12-31T09:18:32.896Z,11.00
2022-12-31T09:20:59.538Z,11.02
2022-12-31T09:23:25.895Z,10.98
2022-12-31T09:25:55.164Z,11.04
2022-12-31T09:28:30.920Z,11.07
2022-12-31T09:30:58.738Z,11.07
2022-12-31T09:33:43.711Z,11.08
2022-12-31T09:36:17.616Z,11.16
2022-12-31T09:38:45.310Z,11.13
2022-12-31T09:41:12.574Z,11.18
2022-12-31T09:43:45.353Z,11.19
2022-12-31T09:46:30.495Z,11.29
2022-12-31T09:49:15.516Z,11.29
2022-12-31T09:51:56.805Z,11.31
2022-12-31T09:54:32.668Z,11.31
2022-12-31T09:57:17.634Z,11.33
2022-12-31T09:59:50.713Z,11.35
2022-12-31T10:02:23.646Z,11.48
2022-12-31T10:04:49.964Z,11.49
2022-12-31T10:07:24.731Z,11.52
2022-12-31T10:09:54.022Z,11.50
2022-12-31T10:12:23.727Z,11.51
2022-12-31T10:14:59.212Z,11.52
2022-12-31T10:17:34.765Z,11.45
2022-12-31T10:20:20.104Z,11.45
2022-12-31T10:22:52.956Z,11.47
2022-12-31T10:25:21.949Z,11.46
2022-12-31T10:28:23.983Z,11.53
2022-12-31T10:30:58.006Z,11.53
2022-12-31T10:33:37.643Z,11.54
2022-12-31T10:36:06.816Z,11.56
2022-12-31T10:38:54.720Z,11.54
2022-12-31T10:41:30.807Z,11.53
2022-12-31T10:44:03.982Z,11.49
2022-12-31T10:46:49.134Z,11.51
2022-12-31T10:49:26.181Z,11.54
2022-12-31T10:52:07.719Z,11.56
2022-12-31T10:54:43.135Z,11.57
2022-12-31T10:57:12.309Z,11.60
2022-12-31T10:59:43.230Z,11.62
2022-12-31T11:02:27.906Z,11.62
2022-12-31T11:04:55.212Z,11.61
2022-12-31T11:07:26.635Z,11.59
2022-12-31T11:10:28.334Z,11.56
2022-12-31T11:13:13.227Z,11.51
2022-12-31T11:15:50.222Z,11.49
2022-12-31T11:18:35.582Z,11.49
2022-12-31T11:21:10.590Z,11.54
2022-12-31T11:23:42.643Z,11.50
2022-12-31T11:26:18.216Z,11.54
2022-12-31T11:28:44.487Z,11.55
2022-12-31T11:31:16.878Z,11.57
2022-12-31T11:34:04.533Z,11.56
2022-12-31T11:36:49.231Z,11.61
2022-12-31T11:39:34.093Z,11.62
2022-12-31T11:42:03.049Z,11.66
2022-12-31T11:44:32.642Z,11.64
2022-12-31T11:47:41.221Z,11.70
2022-12-31T11:50:38.802Z,11.74
2022-12-31T11:53:08.042Z,11.80
2022-12-31T11:55:52.944Z,11.86
2022-12-31T11:58:19.513Z,11.84
2022-12-31T12:00:54.406Z,11.90
2022-12-31T12:03:20.605Z,11.90
2022-12-31T12:05:46.817Z,11.85
2022-12-31T12:08:13.019Z,11.83
2022-12-31T12:10:46.753Z,11.89
2022-12-31T12:13:14.250Z,11.91
2022-12-31T12:15:41.478Z,11.99
2022-12-31T12:18:14.020Z,12.09
2022-12-31T12:20:40.283Z,12.21
2022-12-31T12:23:13.677Z,12.27
2022-12-31T12:25:40.545Z,12.31
2022-12-31T12:28:19.112Z,12.26
2022-12-31T12:30:46.083Z,12.29
2022-12-31T12:33:19.157Z,12.31
2022-12-31T12:35:48.617Z,12.35
2022-12-31T12:38:22.170Z,12.33
2022-12-31T12:40:55.551Z,12.38
2022-12-31T12:43:25.814Z,12.39
2022-12-31T12:45:54.351Z,12.41
2022-12-31T12:48:31.363Z,12.46
2022-12-31T12:50:57.590Z,12.56
2022-12-31T12:53:23.745Z,12.57
2022-12-31T12:56:05.719Z,12.62
2022-12-31T12:58:41.075Z,12.68
2022-12-31T13:01:10.700Z,12.67
2022-12-31T13:03:37.022Z,12.75
2022-12-31T13:06:22.009Z,12.78
2022-12-31T13:09:06.433Z,12.75
2022-12-31T13:11:35.999Z,12.76
2022-12-31T13:14:05.261Z,12.79
2022-12-31T13:16:46.953Z,12.84
2022-12-31T13:19:18.643Z,12.93
2022-12-31T13:21:50.299Z,12.90
2022-12-31T13:24:31.363Z,12.91
2022-12-31T13:27:01.830Z,12.90
2022-12-31T13:29:29.214Z,12.92
2022-12-31T13:31:55.449Z,12.93
2022-12-31T13:34:40.431Z,12.97
2022-12-31T13:37:07.078Z,13.02
2022-12-31T13:39:36.516Z,13.05
2022-12-31T13:42:02.709Z,13.03
2022-12-31T13:44:28.859Z,13.03
2022-12-31T13:46:56.589Z,13.01
2022-12-31T13:49:32.419Z,13.08
2022-12-31T13:52:01.779Z,13.02
2022-12-31T13:54:34.028Z,12.97
2022-12-31T13:57:01.873Z,13.04
2022-12-31T13:59:41.621Z,13.02
2022-12-31T14:02:25.705Z,13.05
2022-12-31T14:04:57.547Z,13.15
2022-12-31T14:07:32.581Z,13.18
2022-12-31T14:10:01.747Z,13.13
2022-12-31T14:12:33.962Z,13.24
2022-12-31T14:15:21.681Z,13.29
2022-12-31T14:18:11.211Z,13.27
2022-12-31T14:20:47.517Z,13.23
2022-12-31T14:23:13.765Z,13.15
2022-12-31T14:25:47.799Z,13.19
2022-12-31T14:28:23.655Z,13.23
2022-12-31T14:30:50.200Z,13.25
2022-12-31T14:33:37.561Z,13.22
2022-12-31T14:36:10.740Z,13.23
2022-12-31T14:38:56.091Z,13.16
2022-12-31T14:41:40.726Z,13.28
2022-12-31T14:44:15.929Z,13.26
2022-12-31T14:46:44.872Z,13.26
2022-12-31T14:49:11.055Z,13.28
2022-12-31T14:51:37.360Z,13.29
2022-12-31T14:54:03.595Z,13.22
2022-12-31T14:56:37.901Z,13.28
2022-12-31T14:59:04.127Z,13.22
2022-12-31T15:01:30.493Z,13.18
2022-12-31T15:03:57.132Z,13.19
2022-12-31T15:06:23.307Z,13.17
2022-12-31T15:08:52.350Z,13.22
2022-12-31T15:11:31.530Z,13.16
2022-12-31T15:14:16.901Z,13.12
2022-12-31T15:17:03.356Z,13.09
2022-12-31T15:19:48.437Z,13.07
2022-12-31T15:22:33.144Z,13.01
2022-12-31T15:24:59.355Z,12.97
2022-12-31T15:27:35.236Z,12.93
2022-12-31T15:30:01.611Z,12.88
2022-12-31T15:32:32.055Z,12.87
2022-12-31T15:35:01.918Z,12.81
2022-12-31T15:37:32.530Z,12.80
2022-12-31T15:40:17.567Z,12.78
2022-12-31T15:42:50.237Z,12.72
2022-12-31T15:45:19.902Z,12.70
2022-12-31T15:47:48.636Z,12.73
2022-12-31T15:50:15.473Z,12.68
2022-12-31T15:52:42.296Z,12.66
2022-12-31T15:55:08.655Z,12.69
2022-12-31T15:57:39.271Z,12.67
2022-12-31T16:00:06.843Z,12.68
2022-12-31T16:02:33.169Z,12.69
2022-12-31T16:04:59.564Z,12.69
2022-12-31T16:07:26.564Z,12.77
2022-12-31T16:09:53.281Z,12.76
2022-12-31T16:12:20.005Z,12.82
2022-12-31T16:14:50.809Z,12.85
2022-12-31T16:17:30.117Z,12.89
2022-12-31T16:19:56.359Z,12.96
2022-12-31T16:22:38.462Z,13.01
2022-12-31T16:25:30.329Z,13.03
2022-12-31T16:27:51.664Z,13.08
2022-12-31T16:30:19.196Z,13.11
2022-12-31T16:32:46.111Z,13.05
2022-12-31T16:35:23.372Z,13.09
2022-12-31T16:38:00.168Z,13.05
2022-12-31T16:40:26.379Z,13.09
2022-12-31T16:42:52.600Z,13.06
2022-12-31T16:45:29.059Z,13.09
2022-12-31T16:47:55.287Z,13.10
2022-12-31T16:50:21.838Z,13.16
2022-12-31T16:52:51.930Z,13.11
2022-12-31T16:55:21.780Z,13.12
2022-12-31T16:57:48.975Z,13.13
2022-12-31T17:00:15.893Z,13.12
2022-12-31T17:02:42.361Z,13.13
2022-12-31T17:05:21.578Z,13.16
2022-12-31T17:07:47.852Z,13.11
2022-12-31T17:10:21.532Z,13.17
2022-12-31T17:13:25.467Z,13.17
2022-12-31T17:15:41.849Z,13.07
2022-12-31T17:18:08.093Z,13.02
2022-12-31T17:20:34.294Z,13.03
2022-12-31T17:23:01.188Z,13.01
2022-12-31T17:25:33.690Z,13.05
2022-12-31T17:28:00.973Z,13.05
2022-12-31T17:30:30.165Z,13.10
2022-12-31T17:33:11.371Z,13.04
2022-12-31T17:35:38.193Z,13.03
2022-12-31T17:38:22.759Z,13.01
2022-12-31T17:40:51.990Z,13.01
2022-12-31T17:43:19.034Z,12.96
2022-12-31T17:45:45.753Z,12.94
2022-12-31T17:48:15.748Z,12.94
2022-12-31T17:50:48.531Z,12.95
2022-12-31T17:53:14.988Z,12.92
2022-12-31T17:55:41.271Z,12.90
2022-12-31T17:58:07.527Z,12.88
2022-12-31T18:00:33.830Z,12.86
2022-12-31T18:03:00.208Z,12.83
2022-12-31T18:05:26.486Z,12.80
2022-12-31T18:07:52.764Z,12.82
2022-12-31T18:10:19.490Z,12.78
2022-12-31T18:12:45.867Z,12.76
2022-12-31T18:15:19.731Z,12.78
2022-12-31T18:17:45.955Z,12.74
2022-12-31T18:20:12.182Z,12.72
2022-12-31T18:22:39.017Z,12.69
2022-12-31T18:25:05.348Z,12.69
2022-12-31T18:27:31.560Z,12.62
2022-12-31T18:30:04.254Z,12.58
2022-12-31T18:32:31.435Z,12.58
2022-12-31T18:34:57.774Z,12.52
2022-12-31T18:37:23.991Z,12.52
2022-12-31T18:39:50.282Z,12.47
2022-12-31T18:42:17.249Z,12.48
2022-12-31T18:44:43.795Z,12.47
2022-12-31T18:47:11.226Z,12.43
2022-12-31T18:49:37.511Z,12.38
2022-12-31T18:52:03.764Z,12.34
2022-12-31T18:54:30.060Z,12.38
2022-12-31T18:56:57.326Z,12.40
2022-12-31T18:59:23.780Z,12.43
2022-12-31T19:01:50.214Z,12.41
2022-12-31T19:04:24.738Z,12.35
2022-12-31T19:06:53.774Z,12.34
2022-12-31T19:09:44.175Z,12.37
2022-12-31T19:12:06.236Z,12.38
2022-12-31T19:14:32.469Z,12.42
2022-12-31T19:19:26.580Z,12.80
2022-12-31T19:21:52.832Z,12.96
2022-12-31T19:24:19.948Z,12.75
2022-12-31T19:26:46.179Z,12.55
2022-12-31T19:29:16.313Z,12.54
2022-12-31T19:31:42.690Z,12.69
2022-12-31T19:34:09.007Z,12.73
2022-12-31T19:36:41.843Z,12.63
2022-12-31T19:39:12.313Z,12.57
2022-12-31T19:41:39.130Z,12.66
2022-12-31T19:44:05.593Z,12.71
2022-12-31T19:46:31.913Z,12.67
2022-12-31T19:48:58.225Z,12.67
2022-12-31T19:51:56.488Z,12.74
2022-12-31T19:57:31.350Z,12.79
2022-12-31T20:00:03.884Z,12.81
2022-12-31T20:02:30.468Z,12.88
2022-12-31T20:04:57.162Z,12.92
2022-12-31T20:07:27.142Z,13.00
2022-12-31T20:09:53.690Z,13.03
2022-12-31T20:12:19.934Z,13.01
2022-12-31T20:14:46.164Z,13.02
2022-12-31T20:17:17.943Z,13.10
2022-12-31T20:19:50.208Z,13.10
2022-12-31T20:22:18.260Z,13.11
2022-12-31T20:24:44.644Z,13.12
2022-12-31T20:27:18.472Z,13.16
2022-12-31T20:29:53.545Z,13.21
2022-12-31T20:32:28.701Z,13.25
2022-12-31T20:34:54.946Z,13.29
2022-12-31T20:37:21.165Z,13.30
2022-12-31T20:39:47.441Z,13.27
2022-12-31T20:42:13.746Z,13.21
2022-12-31T20:44:39.949Z,13.32
2022-12-31T20:47:06.229Z,13.30
2022-12-31T20:50:09.279Z,13.30
2022-12-31T20:52:18.722Z,13.28
2022-12-31T20:54:44.964Z,13.31
2022-12-31T20:57:11.174Z,13.25
2022-12-31T20:59:37.392Z,13.19
2022-12-31T21:02:21.045Z,13.19
2022-12-31T21:04:47.893Z,13.26
2022-12-31T21:07:14.237Z,13.30
2022-12-31T21:09:40.451Z,13.35
2022-12-31T21:12:06.739Z,13.28
2022-12-31T21:14:32.986Z,13.20
2022-12-31T21:16:59.224Z,13.28
2022-12-31T21:19:25.447Z,13.32
2022-12-31T21:21:51.679Z,13.32
2022-12-31T21:24:23.500Z,13.36
2022-12-31T21:26:50.360Z,13.39
2022-12-31T21:29:16.564Z,13.43
2022-12-31T21:31:42.786Z,13.40
2022-12-31T21:34:09.303Z,13.40
2022-12-31T21:52:25.206Z,13.68
2022-12-31T22:00:42.822Z,13.75
2022-12-31T22:03:10.137Z,13.74
2022-12-31T22:05:36.503Z,13.71
2022-12-31T22:08:02.943Z,13.79
2022-12-31T22:10:29.159Z,13.80
2022-12-31T22:12:55.400Z,13.82
2022-12-31T22:15:21.607Z,13.88
2022-12-31T22:17:47.849Z,13.90
2022-12-31T22:20:29.520Z,13.82
2022-12-31T22:22:56.332Z,13.78
2022-12-31T22:25:22.675Z,13.70
2022-12-31T22:28:11.597Z,13.79
2022-12-31T22:30:35.087Z,13.77
2022-12-31T22:33:01.309Z,13.74
2022-12-31T22:35:27.510Z,13.73
2022-12-31T22:38:01.581Z,13.66
2022-12-31T22:40:31.624Z,13.66
2022-12-31T22:42:58.275Z,13.72
2022-12-31T22:45:24.700Z,13.66
2022-12-31T22:47:50.905Z,13.60
2022-12-31T22:50:17.186Z,13.61
2022-12-31T22:52:43.734Z,13.64
2022-12-31T22:55:09.981Z,13.70
2022-12-31T22:57:36.192Z,13.60
2022-12-31T23:00:02.703Z,13.61
2022-12-31T23:02:31.127Z,13.62
2022-12-31T23:05:15.144Z,13.66
2022-12-31T23:07:42.575Z,13.74
2022-12-31T23:10:09.080Z,13.66
2022-12-31T23:12:35.317Z,13.66
2022-12-31T23:15:01.536Z,13.69
2022-12-31T23:17:29.654Z,13.63
2022-12-31T23:19:58.022Z,13.60
2022-12-31T23:22:24.253Z,13.62
2022-12-31T23:24:50.472Z,13.54
2022-12-31T23:27:16.700Z,13.65
2022-12-31T23:29:47.036Z,13.77
2022-12-31T23:32:14.311Z,13.66
2022-12-31T23:34:40.548Z,13.55
2022-12-31T23:37:15.967Z,13.48
2022-12-31T23:39:42.245Z,13.74
2022-12-31T23:42:08.456Z,13.70
2022-12-31T23:44:34.695Z,13.65
2022-12-31T23:47:00.929Z,13.57
2022-12-31T23:49:27.187Z,13.51
2022-12-31T23:51:53.385Z,13.61
2022-12-31T23:54:19.608Z,13.51
2022-12-31T23:56:45.811Z,13.56
2022-12-31T23:59:12.048Z,13.73
